Time;durP1;ratioP1;P1;durP2;ratioP2;P2;SDS_P1;SDS_P2;PMS_P1;PMS_P2;Temp;Humidity;BMP_temperature;BMP_pressure;BME280_temperature;BME280_humidity;BME280_pressure;Samples;Min_cycle;Max_cycle;Signal;HPM_P1;HPM_P2
2023/08/07 00:01:23;;;;;;;1.38;1.27;;;11.40;99.90;;;;;;5068273;28;20208;-68
2023/08/07 00:03:50;;;;;;;1.88;1.15;;;11.40;99.90;;;;;;5068385;28;20457;-68
2023/08/07 00:06:18;;;;;;;1.60;1.20;;;11.40;99.90;;;;;;5061575;28;20196;-68
2023/08/07 00:08:45;;;;;;;1.75;1.30;;;11.40;99.90;;;;;;5069899;28;20615;-68
2023/08/07 00:11:12;;;;;;;8.82;1.50;;;11.40;99.90;;;;;;5072094;28;20212;-68
2023/08/07 00:13:39;;;;;;;2.40;1.38;;;11.40;99.90;;;;;;5072555;28;20200;-68
2023/08/07 00:16:05;;;;;;;2.00;1.48;;;11.40;99.90;;;;;;5072013;28;20606;-68
2023/08/07 00:18:32;;;;;;;2.00;1.65;;;11.40;99.90;;;;;;5071973;28;20224;-68
2023/08/07 00:20:59;;;;;;;2.05;1.40;;;11.30;99.90;;;;;;5072341;28;20212;-68
2023/08/07 00:23:27;;;;;;;2.72;1.45;;;11.40;99.90;;;;;;5072333;28;20576;-68
2023/08/07 00:25:53;;;;;;;2.90;1.60;;;11.30;99.90;;;;;;5072192;28;20200;-68
2023/08/07 00:28:20;;;;;;;2.80;1.50;;;11.30;99.90;;;;;;5071867;28;20220;-68
2023/08/07 00:30:47;;;;;;;2.90;1.38;;;11.20;99.90;;;;;;5072389;28;20462;-68
2023/08/07 00:33:13;;;;;;;3.53;1.70;;;11.20;99.90;;;;;;5072034;28;20216;-68
2023/08/07 00:35:40;;;;;;;1.77;1.25;;;11.20;99.90;;;;;;5071645;28;20201;-68
2023/08/07 00:38:07;;;;;;;1.38;1.23;;;11.20;99.90;;;;;;5071686;28;20220;-69
2023/08/07 00:40:41;;;;;;;2.35;1.23;;;11.20;99.90;;;;;;5071976;28;20211;-69
2023/08/07 00:43:08;;;;;;;6.93;1.30;;;11.20;99.90;;;;;;5071838;28;20199;-69
2023/08/07 00:45:38;;;;;;;4.43;2.00;;;11.20;99.90;;;;;;5071706;28;20663;-68
2023/08/07 00:48:06;;;;;;;3.08;1.48;;;11.20;99.90;;;;;;5071512;28;20220;-68
2023/08/07 00:50:33;;;;;;;1.45;1.35;;;11.20;99.90;;;;;;5071139;28;20200;-69
2023/08/07 00:53:00;;;;;;;1.75;1.48;;;11.20;99.90;;;;;;5071539;28;20743;-68
2023/08/07 00:55:27;;;;;;;1.60;1.33;;;11.10;99.90;;;;;;5071866;28;20569;-68
2023/08/07 00:57:55;;;;;;;3.58;2.00;;;11.10;99.90;;;;;;5071312;28;20622;-68
2023/08/07 01:00:22;;;;;;;2.05;1.67;;;11.10;99.90;;;;;;5071549;28;20648;-69
2023/08/07 01:02:50;;;;;;;3.03;1.60;;;11.10;99.90;;;;;;5071771;28;20196;-68
2023/08/07 01:05:18;;;;;;;1.42;1.30;;;11.00;99.90;;;;;;5071466;28;20211;-68
2023/08/07 01:07:47;;;;;;;2.53;1.70;;;11.00;99.90;;;;;;5070975;28;20204;-68
2023/08/07 01:10:14;;;;;;;2.40;1.58;;;11.10;99.90;;;;;;5071359;28;20211;-68
2023/08/07 01:12:48;;;;;;;2.92;2.03;;;11.10;99.90;;;;;;5071310;28;20224;-69
2023/08/07 01:15:22;;;;;;;1.73;1.60;;;11.10;99.90;;;;;;5071285;28;20208;-69
2023/08/07 01:17:52;;;;;;;1.65;1.55;;;11.10;99.90;;;;;;5070852;28;20200;-68
2023/08/07 01:20:19;;;;;;;1.40;1.30;;;11.10;99.90;;;;;;5070961;28;20591;-68
2023/08/07 01:22:47;;;;;;;2.67;1.38;;;11.10;99.90;;;;;;5071290;28;20196;-69
2023/08/07 01:25:14;;;;;;;3.13;1.95;;;11.20;99.90;;;;;;5071048;28;20196;-68
2023/08/07 01:27:51;;;;;;;3.17;1.83;;;11.10;99.90;;;;;;5069979;28;20575;-69
2023/08/07 01:30:27;;;;;;;2.10;1.73;;;11.20;99.90;;;;;;5070858;28;20201;-69
2023/08/07 01:33:00;;;;;;;3.20;1.40;;;11.20;99.90;;;;;;5071082;28;20223;-68
2023/08/07 01:35:30;;;;;;;2.00;1.40;;;11.20;99.90;;;;;;5071078;28;20223;-68
2023/08/07 01:38:00;;;;;;;1.23;1.13;;;11.20;99.90;;;;;;5070345;28;20707;-68
2023/08/07 01:40:28;;;;;;;2.33;1.27;;;11.20;99.90;;;;;;5070851;28;20196;-68
2023/08/07 01:42:56;;;;;;;3.20;1.75;;;11.20;99.90;;;;;;5070775;28;20193;-68
2023/08/07 01:45:24;;;;;;;1.65;1.10;;;11.20;99.90;;;;;;5070603;28;20200;-69
2023/08/07 01:47:52;;;;;;;1.63;1.23;;;11.20;99.90;;;;;;5070238;28;20576;-68
2023/08/07 01:50:19;;;;;;;2.63;1.65;;;11.20;99.90;;;;;;5070432;28;20196;-68
2023/08/07 01:52:46;;;;;;;1.35;1.25;;;11.20;99.90;;;;;;5070690;28;20219;-69
2023/08/07 01:55:14;;;;;;;2.15;1.40;;;11.20;99.90;;;;;;5070399;28;20227;-69
2023/08/07 01:57:41;;;;;;;1.50;1.40;;;11.20;99.90;;;;;;5069987;28;20204;-69
2023/08/07 02:00:09;;;;;;;1.33;1.23;;;11.20;99.90;;;;;;5070313;28;20196;-68
2023/08/07 02:02:36;;;;;;;2.30;1.33;;;11.20;99.90;;;;;;5069987;28;20610;-69
2023/08/07 02:05:03;;;;;;;1.30;1.10;;;11.20;99.90;;;;;;5070369;28;20575;-69
2023/08/07 02:07:30;;;;;;;1.20;1.10;;;11.20;99.90;;;;;;5070421;28;20262;-68
2023/08/07 02:09:57;;;;;;;2.95;1.50;;;11.20;99.90;;;;;;5070025;28;20236;-68
2023/08/07 02:12:26;;;;;;;2.28;1.42;;;11.20;99.90;;;;;;5070388;28;20220;-68
2023/08/07 02:14:53;;;;;;;1.38;1.27;;;11.20;99.90;;;;;;5070397;28;20674;-69
2023/08/07 02:17:21;;;;;;;2.28;1.80;;;11.30;99.90;;;;;;5070038;28;20227;-68
2023/08/07 02:19:48;;;;;;;1.50;1.40;;;11.20;99.90;;;;;;5069965;28;20563;-68
2023/08/07 02:22:15;;;;;;;1.63;1.35;;;11.30;99.90;;;;;;5070251;28;20204;-68
2023/08/07 02:24:41;;;;;;;1.83;1.50;;;11.30;99.90;;;;;;5070410;28;20571;-68
2023/08/07 02:27:08;;;;;;;1.42;1.20;;;11.30;99.90;;;;;;5069819;28;20203;-68
2023/08/07 02:29:36;;;;;;;1.73;1.48;;;11.30;99.90;;;;;;5069903;28;20227;-68
2023/08/07 02:32:04;;;;;;;9.25;3.60;;;11.30;99.90;;;;;;5070066;28;20223;-69
2023/08/07 02:34:30;;;;;;;1.55;1.15;;;11.30;99.90;;;;;;5070070;28;20204;-69
2023/08/07 02:36:57;;;;;;;2.33;1.60;;;11.30;99.90;;;;;;5069815;28;20207;-69
2023/08/07 02:39:24;;;;;;;2.13;1.30;;;11.30;99.90;;;;;;5069681;28;20227;-68
2023/08/07 02:41:50;;;;;;;1.23;1.00;;;11.30;99.90;;;;;;5070112;28;20235;-69
2023/08/07 02:44:18;;;;;;;2.33;1.50;;;11.30;99.90;;;;;;5069951;28;20690;-68
2023/08/07 02:46:46;;;;;;;3.47;1.40;;;11.30;99.90;;;;;;5069853;28;20717;-68
2023/08/07 02:49:13;;;;;;;2.80;1.40;;;11.20;99.90;;;;;;5069328;28;20222;-69
2023/08/07 02:51:39;;;;;;;1.55;1.45;;;11.30;99.90;;;;;;5070090;28;20567;-69
2023/08/07 02:54:06;;;;;;;2.33;1.70;;;11.30;99.90;;;;;;5069866;28;20216;-68
2023/08/07 02:56:33;;;;;;;3.10;1.73;;;11.30;99.90;;;;;;5069752;28;20564;-69
2023/08/07 02:59:01;;;;;;;4.90;1.60;;;11.30;99.90;;;;;;5069539;28;20250;-69
2023/08/07 03:01:28;;;;;;;1.80;1.35;;;11.20;99.90;;;;;;5069949;28;20238;-69
2023/08/07 03:03:56;;;;;;;2.42;1.80;;;11.20;99.90;;;;;;5069738;28;20201;-69
2023/08/07 03:06:23;;;;;;;1.65;1.55;;;11.20;99.90;;;;;;5069574;28;20554;-68
2023/08/07 03:08:50;;;;;;;1.90;1.30;;;11.20;99.90;;;;;;5069534;28;20668;-68
2023/08/07 03:11:16;;;;;;;1.80;1.40;;;11.10;99.90;;;;;;5069641;28;20204;-68
2023/08/07 03:13:44;;;;;;;2.67;1.80;;;11.10;99.90;;;;;;5072506;28;20216;-69
2023/08/07 03:16:11;;;;;;;4.72;1.60;;;11.10;99.90;;;;;;5073406;28;20208;-68
2023/08/07 03:18:37;;;;;;;7.07;1.90;;;11.10;99.90;;;;;;5073215;28;20227;-68
2023/08/07 03:21:05;;;;;;;1.90;1.30;;;11.00;99.90;;;;;;5073353;28;20206;-68
2023/08/07 03:23:32;;;;;;;2.90;1.70;;;11.00;99.90;;;;;;5073418;28;20192;-68
2023/08/07 03:26:06;;;;;;;2.75;1.35;;;11.00;99.90;;;;;;5073144;28;20201;-68
2023/08/07 03:28:33;;;;;;;2.58;1.92;;;11.00;99.90;;;;;;5072596;28;20224;-68
2023/08/07 03:31:00;;;;;;;2.15;1.95;;;11.00;99.90;;;;;;5072575;28;20684;-68
2023/08/07 03:33:27;;;;;;;1.55;1.23;;;10.90;99.90;;;;;;5072355;28;20221;-68
2023/08/07 03:35:54;;;;;;;3.70;1.67;;;10.90;99.90;;;;;;5072518;28;20207;-67
2023/08/07 03:38:22;;;;;;;1.85;1.45;;;11.00;99.90;;;;;;5072421;28;20631;-68
2023/08/07 03:40:49;;;;;;;2.45;2.05;;;10.90;99.90;;;;;;5072930;28;20687;-68
2023/08/07 03:43:15;;;;;;;2.13;1.73;;;10.90;99.90;;;;;;5072544;28;20203;-68
2023/08/07 03:45:42;;;;;;;1.77;1.42;;;11.00;99.90;;;;;;5072404;28;20204;-69
2023/08/07 03:48:09;;;;;;;1.40;1.10;;;10.90;99.90;;;;;;5071998;28;20231;-68
2023/08/07 03:50:37;;;;;;;2.20;1.27;;;11.00;99.90;;;;;;5072660;28;20201;-68
2023/08/07 03:53:06;;;;;;;2.70;1.55;;;11.00;99.90;;;;;;5069867;28;20212;-68
2023/08/07 03:55:35;;;;;;;2.05;1.30;;;11.00;99.90;;;;;;5072528;28;20204;-68
2023/08/07 03:58:01;;;;;;;2.50;1.67;;;10.90;99.90;;;;;;5071980;28;20243;-68
2023/08/07 04:00:28;;;;;;;2.08;1.65;;;10.90;99.90;;;;;;5072354;28;20209;-68
2023/08/07 04:02:55;;;;;;;1.45;1.20;;;10.90;99.90;;;;;;5072431;28;20222;-68
2023/08/07 04:05:21;;;;;;;1.95;1.33;;;10.90;99.90;;;;;;5072309;28;20205;-68
2023/08/07 04:07:48;;;;;;;3.50;1.70;;;10.90;99.90;;;;;;5072047;28;20586;-68
2023/08/07 04:10:15;;;;;;;1.40;1.30;;;10.90;99.90;;;;;;5072039;28;20200;-68
2023/08/07 04:12:43;;;;;;;2.40;1.30;;;10.90;99.90;;;;;;5072091;28;20568;-69
2023/08/07 04:15:10;;;;;;;1.60;1.50;;;10.90;99.90;;;;;;5072114;28;20896;-68
2023/08/07 04:17:37;;;;;;;2.05;1.75;;;10.90;99.90;;;;;;5071506;28;20578;-68
2023/08/07 04:20:05;;;;;;;1.55;1.45;;;10.90;99.90;;;;;;5069366;28;20205;-68
2023/08/07 04:22:32;;;;;;;2.95;1.60;;;10.90;99.90;;;;;;5071971;28;20211;-68
2023/08/07 04:24:59;;;;;;;2.00;1.48;;;10.90;99.90;;;;;;5070550;28;20208;-68
2023/08/07 04:27:26;;;;;;;3.83;1.80;;;10.90;99.90;;;;;;5071361;28;20667;-68
2023/08/07 04:29:54;;;;;;;2.00;1.67;;;10.90;99.90;;;;;;5070904;28;20212;-68
2023/08/07 04:32:21;;;;;;;1.40;1.10;;;10.90;99.90;;;;;;5071295;28;20200;-68
2023/08/07 04:34:48;;;;;;;3.28;1.88;;;10.90;99.90;;;;;;5071980;28;20219;-68
2023/08/07 04:37:14;;;;;;;5.82;1.88;;;10.90;99.90;;;;;;5071583;28;20204;-68
2023/08/07 04:39:41;;;;;;;2.15;1.45;;;10.90;99.90;;;;;;5071584;28;20217;-68
2023/08/07 04:42:08;;;;;;;1.48;1.30;;;10.90;99.90;;;;;;5072033;28;20200;-68
2023/08/07 04:44:34;;;;;;;1.95;1.50;;;10.90;99.90;;;;;;5071773;28;20199;-68
2023/08/07 04:47:02;;;;;;;2.42;1.48;;;10.90;99.90;;;;;;5071758;28;20197;-68
2023/08/07 04:49:29;;;;;;;2.33;1.65;;;10.90;99.90;;;;;;5071536;28;20225;-68
2023/08/07 04:51:56;;;;;;;1.70;1.48;;;10.90;99.90;;;;;;5071852;28;20205;-68
2023/08/07 04:54:22;;;;;;;2.17;1.30;;;10.90;99.90;;;;;;5071632;28;20637;-68
2023/08/07 04:56:49;;;;;;;1.83;1.35;;;10.90;99.90;;;;;;5071713;28;20207;-68
2023/08/07 04:59:16;;;;;;;2.85;1.67;;;10.90;99.90;;;;;;5071377;28;20227;-68
2023/08/07 05:01:43;;;;;;;1.83;1.67;;;10.80;99.90;;;;;;5071524;28;20196;-68
2023/08/07 05:04:11;;;;;;;2.50;1.50;;;10.90;99.90;;;;;;5071501;28;20279;-68
2023/08/07 05:06:37;;;;;;;2.00;1.50;;;10.90;99.90;;;;;;5071394;28;20204;-68
2023/08/07 05:09:04;;;;;;;3.28;1.60;;;10.90;99.90;;;;;;5071046;28;20605;-68
2023/08/07 05:11:31;;;;;;;2.60;1.50;;;10.90;99.90;;;;;;5071573;28;20200;-68
2023/08/07 05:13:57;;;;;;;3.80;1.50;;;11.00;99.90;;;;;;5071284;28;20269;-68
2023/08/07 05:16:24;;;;;;;1.52;1.10;;;11.00;99.90;;;;;;5071262;28;20197;-68
2023/08/07 05:18:51;;;;;;;1.83;1.63;;;11.00;99.90;;;;;;5070996;28;20212;-68
2023/08/07 05:21:19;;;;;;;2.08;1.20;;;11.10;99.90;;;;;;5071533;28;20621;-69
2023/08/07 05:23:47;;;;;;;1.90;1.38;;;11.10;99.90;;;;;;5071217;28;20558;-68
2023/08/07 05:26:14;;;;;;;1.70;1.60;;;11.10;99.90;;;;;;5070950;28;20200;-68
2023/08/07 05:28:40;;;;;;;1.40;1.30;;;11.20;99.90;;;;;;5070482;28;20220;-68
2023/08/07 05:31:07;;;;;;;2.80;1.52;;;11.20;99.90;;;;;;5069611;28;20196;-68
2023/08/07 05:33:34;;;;;;;2.40;2.20;;;11.30;99.90;;;;;;5069886;28;20220;-68
2023/08/07 05:36:00;;;;;;;1.88;1.70;;;11.30;99.90;;;;;;5070269;28;20567;-68
2023/08/07 05:38:28;;;;;;;2.65;1.50;;;11.40;99.90;;;;;;5069956;28;20216;-68
2023/08/07 05:40:55;;;;;;;2.35;1.75;;;11.50;99.90;;;;;;5070549;28;20207;-68
2023/08/07 05:43:22;;;;;;;2.63;1.65;;;11.60;99.90;;;;;;5070275;28;20571;-68
2023/08/07 05:45:49;;;;;;;3.55;1.48;;;11.70;99.90;;;;;;5070039;28;20699;-68
2023/08/07 05:48:17;;;;;;;4.10;2.00;;;11.70;99.90;;;;;;5069736;28;20227;-68
2023/08/07 05:50:43;;;;;;;1.42;1.30;;;11.80;99.90;;;;;;5070472;28;20246;-68
2023/08/07 05:53:10;;;;;;;2.75;1.63;;;11.90;99.90;;;;;;5070058;28;20235;-69
2023/08/07 05:55:41;;;;;;;2.95;1.15;;;11.90;99.90;;;;;;5070093;28;20211;-68
2023/08/07 05:58:08;;;;;;;1.65;1.23;;;11.90;99.90;;;;;;5069653;28;20749;-68
2023/08/07 06:00:35;;;;;;;2.03;1.30;;;11.90;99.90;;;;;;5070036;28;20578;-68
2023/08/07 06:03:02;;;;;;;1.90;1.52;;;12.00;99.90;;;;;;5070159;28;20212;-68
2023/08/07 06:05:29;;;;;;;6.78;2.10;;;12.00;99.90;;;;;;5070187;28;20203;-68
2023/08/07 06:07:59;;;;;;;1.80;1.40;;;12.00;99.90;;;;;;5086409;22;21039;-94
2023/08/07 06:10:26;;;;;;;3.50;1.85;;;12.00;99.90;;;;;;5070152;28;20459;-94
2023/08/07 06:12:54;;;;;;;2.38;1.50;;;12.00;99.90;;;;;;5086591;22;20238;-71
2023/08/07 06:15:21;;;;;;;1.35;1.25;;;12.00;99.90;;;;;;5070280;28;20224;-71
2023/08/07 06:17:47;;;;;;;2.67;1.30;;;12.10;99.90;;;;;;5069360;28;20212;-70
2023/08/07 06:20:15;;;;;;;2.45;1.30;;;12.10;99.90;;;;;;5070122;28;20461;-71
2023/08/07 06:22:42;;;;;;;1.30;1.20;;;12.10;99.90;;;;;;5070102;28;20223;-71
2023/08/07 06:25:10;;;;;;;4.90;1.60;;;12.10;99.90;;;;;;5070061;28;20578;-71
2023/08/07 06:27:36;;;;;;;2.58;2.15;;;12.20;99.90;;;;;;5069200;28;20816;-71
2023/08/07 06:30:05;;;;;;;2.60;1.40;;;12.20;99.90;;;;;;5069804;28;20204;-71
2023/08/07 06:32:32;;;;;;;2.43;1.60;;;12.20;99.90;;;;;;5065062;28;20208;-71
2023/08/07 06:34:59;;;;;;;2.17;1.40;;;12.20;99.90;;;;;;5069352;28;20550;-71
2023/08/07 06:37:26;;;;;;;4.77;2.17;;;12.20;99.90;;;;;;5069502;28;20815;-71
2023/08/07 06:39:53;;;;;;;5.33;1.70;;;12.20;99.90;;;;;;5068516;28;20474;-71
2023/08/07 06:42:20;;;;;;;1.60;1.50;;;12.20;99.90;;;;;;5069272;28;20458;-71
2023/08/07 06:44:47;;;;;;;1.63;1.40;;;12.20;99.90;;;;;;5069151;28;20284;-70
2023/08/07 06:47:16;;;;;;;2.07;1.50;;;12.20;99.90;;;;;;5069809;28;20205;-71
2023/08/07 06:49:43;;;;;;;4.50;1.50;;;12.30;99.90;;;;;;5073179;28;20498;-71
2023/08/07 06:52:10;;;;;;;2.17;1.70;;;12.40;99.90;;;;;;5073956;28;21018;-71
2023/08/07 06:54:37;;;;;;;2.95;1.40;;;12.40;99.90;;;;;;5072859;28;21053;-71
2023/08/07 06:57:05;;;;;;;3.17;2.27;;;12.40;99.90;;;;;;5074016;28;20279;-71
2023/08/07 06:59:32;;;;;;;2.57;1.90;;;12.40;99.90;;;;;;5073477;28;20536;-71
2023/08/07 07:01:59;;;;;;;1.90;1.80;;;12.50;99.90;;;;;;5072871;28;21048;-72
2023/08/07 07:04:27;;;;;;;5.43;1.23;;;12.60;99.90;;;;;;5073561;28;20454;-71
2023/08/07 07:06:54;;;;;;;1.63;1.53;;;12.60;99.90;;;;;;5072587;28;20870;-71
2023/08/07 07:09:22;;;;;;;1.60;1.43;;;12.70;99.90;;;;;;5073269;28;20516;-71
2023/08/07 07:11:49;;;;;;;1.80;1.30;;;12.80;99.90;;;;;;5073398;28;20454;-71
2023/08/07 07:14:16;;;;;;;2.27;1.80;;;12.80;99.90;;;;;;5073542;28;20486;-71
2023/08/07 07:16:43;;;;;;;1.73;1.50;;;12.90;99.90;;;;;;5072571;28;20504;-71
2023/08/07 07:19:10;;;;;;;1.37;1.20;;;12.90;99.90;;;;;;5072674;28;20212;-71
2023/08/07 07:21:38;;;;;;;2.10;1.47;;;12.90;99.90;;;;;;5073155;28;20457;-71
2023/08/07 07:24:06;;;;;;;2.42;1.70;;;12.90;99.90;;;;;;5068339;28;20470;-71
2023/08/07 07:26:32;;;;;;;1.57;1.30;;;12.90;99.90;;;;;;5060621;28;20212;-72
2023/08/07 07:28:59;;;;;;;3.23;1.30;;;12.80;99.90;;;;;;5070485;28;20479;-72
2023/08/07 07:31:26;;;;;;;1.53;1.30;;;12.90;99.90;;;;;;5064077;28;20468;-72
2023/08/07 07:33:53;;;;;;;1.50;1.10;;;12.90;99.90;;;;;;5070379;28;20486;-72
2023/08/07 07:36:20;;;;;;;1.87;1.50;;;12.90;99.90;;;;;;5066757;28;20486;-72
2023/08/07 07:38:48;;;;;;;1.50;1.30;;;12.90;99.90;;;;;;5071503;28;20482;-72
2023/08/07 07:41:15;;;;;;;2.37;1.50;;;13.00;99.90;;;;;;5072604;28;20455;-72
2023/08/07 07:43:42;;;;;;;2.00;1.53;;;13.10;99.90;;;;;;5072203;28;20442;-72
2023/08/07 07:46:09;;;;;;;1.47;1.37;;;13.30;99.90;;;;;;5072146;28;20458;-72
2023/08/07 07:48:36;;;;;;;1.90;1.57;;;13.40;99.90;;;;;;5072100;28;20476;-72
2023/08/07 07:51:04;;;;;;;2.07;1.27;;;13.60;99.90;;;;;;5072458;28;20466;-73
2023/08/07 07:53:31;;;;;;;2.87;1.57;;;13.70;99.90;;;;;;5072395;28;20454;-72
2023/08/07 07:55:59;;;;;;;1.47;1.23;;;13.80;99.90;;;;;;5071875;28;20841;-72
2023/08/07 07:58:26;;;;;;;2.07;1.40;;;13.90;99.90;;;;;;5071857;28;20799;-72
2023/08/07 08:00:54;;;;;;;2.07;1.50;;;14.00;99.90;;;;;;5071128;28;20465;-72
2023/08/07 08:03:21;;;;;;;1.30;1.20;;;14.10;99.90;;;;;;5072235;28;20455;-72
2023/08/07 08:05:50;;;;;;;1.30;1.20;;;14.20;99.90;;;;;;5072020;28;20493;-73
2023/08/07 08:08:17;;;;;;;1.57;1.27;;;14.20;99.90;;;;;;5071345;28;20510;-71
2023/08/07 08:10:44;;;;;;;3.40;1.50;;;14.30;99.90;;;;;;5071714;28;20501;-71
2023/08/07 08:13:12;;;;;;;1.70;1.13;;;14.30;99.90;;;;;;5072304;28;20491;-72
2023/08/07 08:15:39;;;;;;;1.27;1.13;;;14.30;99.90;;;;;;5071945;28;20888;-72
2023/08/07 08:18:06;;;;;;;1.40;1.23;;;14.30;99.90;;;;;;5063357;28;20479;-72
2023/08/07 08:20:32;;;;;;;2.80;1.40;;;14.20;99.90;;;;;;5071687;28;20833;-72
2023/08/07 08:22:59;;;;;;;2.30;1.30;;;14.30;99.90;;;;;;5071434;28;20870;-72
2023/08/07 08:25:26;;;;;;;1.37;1.27;;;14.30;99.90;;;;;;5072001;28;20450;-72
2023/08/07 08:27:53;;;;;;;2.20;1.40;;;14.30;99.90;;;;;;5070975;28;20860;-72
2023/08/07 08:30:21;;;;;;;1.37;1.20;;;14.40;99.90;;;;;;5071528;28;20464;-72
2023/08/07 08:32:48;;;;;;;2.30;1.53;;;14.40;99.90;;;;;;5071228;28;20455;-72
2023/08/07 08:35:14;;;;;;;2.80;1.53;;;14.40;99.90;;;;;;5071833;28;20822;-72
2023/08/07 08:37:41;;;;;;;1.30;1.20;;;14.40;99.90;;;;;;5071214;28;20536;-72
2023/08/07 08:40:11;;;;;;;2.00;1.20;;;14.50;99.90;;;;;;5071293;28;20462;-72
2023/08/07 08:42:40;;;;;;;1.43;1.30;;;14.60;99.90;;;;;;5072327;28;20457;-72
2023/08/07 08:45:10;;;;;;;2.00;1.30;;;14.70;99.90;;;;;;5070518;28;20452;-72
2023/08/07 08:47:39;;;;;;;1.20;1.00;;;14.90;99.90;;;;;;5070941;28;20826;-72
2023/08/07 08:50:11;;;;;;;1.60;1.17;;;15.10;99.90;;;;;;5071177;28;20464;-72
2023/08/07 08:52:39;;;;;;;1.53;1.10;;;15.20;99.90;;;;;;5071478;28;20458;-72
2023/08/07 08:55:07;;;;;;;1.73;1.10;;;15.50;99.90;;;;;;5070795;28;20562;-72
2023/08/07 08:57:35;;;;;;;2.70;1.20;;;15.70;99.90;;;;;;5071000;28;20457;-72
2023/08/07 09:00:06;;;;;;;1.10;1.00;;;16.00;99.90;;;;;;5070605;28;20972;-71
2023/08/07 09:02:33;;;;;;;3.10;1.13;;;16.10;99.90;;;;;;5071755;28;20826;-71
2023/08/07 09:05:01;;;;;;;1.70;1.47;;;16.00;99.90;;;;;;5070860;28;20459;-72
2023/08/07 09:07:29;;;;;;;2.60;1.50;;;16.00;99.90;;;;;;5070968;28;20454;-71
2023/08/07 09:09:57;;;;;;;1.23;1.13;;;16.00;99.90;;;;;;5069453;28;20487;-72
2023/08/07 09:12:27;;;;;;;1.20;0.93;;;16.00;99.90;;;;;;5071115;28;20879;-72
2023/08/07 09:14:57;;;;;;;1.20;1.10;;;16.00;99.90;;;;;;5070288;28;20476;-72
2023/08/07 09:17:25;;;;;;;2.17;1.20;;;16.00;99.90;;;;;;5071275;28;20840;-72
2023/08/07 09:19:53;;;;;;;1.70;1.50;;;15.90;99.90;;;;;;5070145;28;20525;-72
2023/08/07 09:22:21;;;;;;;1.13;1.03;;;16.00;99.90;;;;;;5070003;28;20858;-72
2023/08/07 09:24:49;;;;;;;1.93;1.20;;;15.90;99.90;;;;;;5070064;28;20455;-72
2023/08/07 09:27:16;;;;;;;1.00;0.90;;;16.00;99.90;;;;;;5062530;28;20937;-72
2023/08/07 09:29:43;;;;;;;4.20;1.37;;;15.90;99.90;;;;;;5070032;28;20478;-72
2023/08/07 09:32:12;;;;;;;1.30;1.00;;;15.90;99.90;;;;;;5070468;28;20453;-72
2023/08/07 09:34:40;;;;;;;1.13;1.03;;;16.00;99.90;;;;;;5070441;28;20488;-72
2023/08/07 09:37:08;;;;;;;1.30;1.00;;;16.00;99.90;;;;;;5070270;28;20459;-72
2023/08/07 09:39:36;;;;;;;1.40;1.23;;;16.00;99.90;;;;;;5070227;28;21026;-72
2023/08/07 09:42:03;;;;;;;2.17;1.53;;;16.10;99.90;;;;;;5069265;28;20462;-72
2023/08/07 09:44:36;;;;;;;1.73;1.40;;;16.20;99.90;;;;;;5068992;28;20492;-72
2023/08/07 09:47:12;;;;;;;1.63;1.20;;;16.20;99.90;;;;;;5067361;28;21160;-72
2023/08/07 09:49:39;;;;;;;1.20;1.10;;;16.10;99.90;;;;;;5068955;28;20481;-72
2023/08/07 09:52:08;;;;;;;1.27;1.17;;;16.10;99.90;;;;;;5068794;28;20450;-72
2023/08/07 09:54:37;;;;;;;1.50;1.10;;;16.10;99.90;;;;;;5069318;28;20543;-72
2023/08/07 09:57:04;;;;;;;1.83;1.20;;;16.20;99.90;;;;;;5068630;28;20502;-72
2023/08/07 09:59:32;;;;;;;1.97;1.37;;;16.20;99.90;;;;;;5068330;28;20479;-72
2023/08/07 10:02:01;;;;;;;1.17;1.00;;;16.20;99.90;;;;;;5069164;28;20457;-72
2023/08/07 10:04:27;;;;;;;1.73;1.43;;;16.20;99.90;;;;;;5069342;28;20458;-72
2023/08/07 10:06:54;;;;;;;1.20;1.10;;;16.20;99.90;;;;;;5068429;28;20463;-72
2023/08/07 10:09:22;;;;;;;1.47;1.17;;;16.40;99.90;;;;;;5068301;28;20479;-72
2023/08/07 10:11:52;;;;;;;1.40;1.10;;;16.50;99.90;;;;;;5069101;28;20844;-72
2023/08/07 10:14:19;;;;;;;1.50;1.30;;;16.90;99.90;;;;;;5068351;28;21091;-72
2023/08/07 10:16:47;;;;;;;2.70;1.10;;;17.20;99.90;;;;;;5068948;28;20458;-72
2023/08/07 10:19:14;;;;;;;1.60;1.30;;;17.40;99.90;;;;;;5068129;28;20482;-72
2023/08/07 10:21:41;;;;;;;3.47;1.37;;;17.60;99.90;;;;;;5067949;28;20454;-72
2023/08/07 10:24:09;;;;;;;2.57;1.80;;;17.40;99.90;;;;;;5068618;28;20467;-72
2023/08/07 10:26:40;;;;;;;4.47;1.37;;;17.30;99.90;;;;;;5069235;28;20818;-72
2023/08/07 10:29:12;;;;;;;1.20;1.10;;;17.30;99.90;;;;;;5067753;28;20484;-72
2023/08/07 10:31:41;;;;;;;1.80;1.33;;;17.30;99.90;;;;;;5068974;28;20458;-72
2023/08/07 10:34:08;;;;;;;1.87;1.50;;;17.20;99.90;;;;;;5068207;28;20947;-72
2023/08/07 10:36:38;;;;;;;3.33;1.30;;;17.20;99.90;;;;;;5068117;28;20489;-72
2023/08/07 10:39:09;;;;;;;1.70;1.30;;;17.20;99.90;;;;;;5068250;28;20514;-72
2023/08/07 10:41:45;;;;;;;1.50;1.40;;;17.00;99.90;;;;;;5068839;28;20462;-72
2023/08/07 10:44:20;;;;;;;1.50;1.10;;;17.00;99.90;;;;;;5067976;28;20454;-72
2023/08/07 10:46:53;;;;;;;1.50;1.40;;;17.00;99.90;;;;;;5068551;28;20497;-72
2023/08/07 10:49:36;;;;;;;1.93;1.20;;;16.90;99.90;;;;;;5067667;28;20540;-72
2023/08/07 10:52:10;;;;;;;1.30;1.20;;;16.80;99.90;;;;;;5066964;28;20493;-72
2023/08/07 10:54:42;;;;;;;1.67;1.20;;;16.80;99.90;;;;;;5069903;28;20828;-72
2023/08/07 10:57:13;;;;;;;2.50;1.70;;;16.80;99.90;;;;;;5069030;28;20462;-72
2023/08/07 10:59:45;;;;;;;1.40;1.17;;;16.90;99.90;;;;;;5069226;28;20509;-72
2023/08/07 11:02:13;;;;;;;1.27;1.10;;;16.80;99.90;;;;;;5069280;28;20527;-72
2023/08/07 11:04:40;;;;;;;2.37;1.47;;;16.60;99.90;;;;;;5069478;28;20453;-72
2023/08/07 11:07:07;;;;;;;1.60;1.40;;;16.50;99.90;;;;;;5067124;28;20462;-72
2023/08/07 11:09:35;;;;;;;1.90;1.50;;;16.60;99.90;;;;;;5069175;28;20481;-72
2023/08/07 11:12:02;;;;;;;2.10;1.67;;;16.80;99.90;;;;;;5068522;28;20465;-73
2023/08/07 11:14:28;;;;;;;1.40;1.30;;;17.30;99.90;;;;;;5069399;28;20838;-72
2023/08/07 11:16:57;;;;;;;2.07;1.40;;;17.60;99.90;;;;;;5069192;28;20649;-72
2023/08/07 11:19:24;;;;;;;2.17;1.50;;;17.60;99.90;;;;;;5068497;28;20571;-73
2023/08/07 11:21:51;;;;;;;1.87;1.67;;;17.40;99.90;;;;;;5068984;28;20451;-72
2023/08/07 11:24:20;;;;;;;1.67;1.27;;;17.30;99.90;;;;;;5068843;28;20470;-72
2023/08/07 11:26:46;;;;;;;1.43;1.30;;;17.10;99.90;;;;;;5069562;28;20833;-72
2023/08/07 11:29:17;;;;;;;1.27;1.17;;;16.90;99.90;;;;;;5068544;28;20498;-72
2023/08/07 11:31:44;;;;;;;1.30;1.17;;;16.80;99.90;;;;;;5069539;28;20507;-72
2023/08/07 11:34:12;;;;;;;1.63;1.50;;;16.70;99.90;;;;;;5071020;28;20450;-72
2023/08/07 11:36:42;;;;;;;2.27;1.73;;;16.40;99.90;;;;;;5072264;28;20508;-72
2023/08/07 11:39:08;;;;;;;1.43;1.10;;;16.30;99.90;;;;;;5072078;28;20478;-72
2023/08/07 11:41:35;;;;;;;2.57;1.60;;;16.20;99.90;;;;;;5072883;28;20464;-72
2023/08/07 11:44:02;;;;;;;2.70;1.43;;;16.10;99.90;;;;;;5070081;28;20468;-74
2023/08/07 11:46:30;;;;;;;1.37;1.27;;;16.00;99.90;;;;;;5072740;28;20465;-72
2023/08/07 11:48:57;;;;;;;1.63;1.47;;;15.90;99.90;;;;;;5072435;28;20477;-72
2023/08/07 11:51:25;;;;;;;1.47;1.37;;;15.70;99.90;;;;;;5071634;28;20969;-72
2023/08/07 11:53:56;;;;;;;1.50;1.40;;;15.70;99.90;;;;;;5072452;28;20469;-72
2023/08/07 11:56:23;;;;;;;2.27;1.50;;;15.70;99.90;;;;;;5070269;28;20905;-73
2023/08/07 11:58:51;;;;;;;1.47;1.30;;;15.70;99.90;;;;;;5068370;28;20483;-72
2023/08/07 12:01:20;;;;;;;1.60;1.50;;;15.70;99.90;;;;;;5072147;28;20949;-72
2023/08/07 12:03:52;;;;;;;1.30;1.20;;;15.60;99.90;;;;;;5072338;28;20461;-72
2023/08/07 12:06:19;;;;;;;1.13;1.03;;;15.60;99.90;;;;;;5072386;28;20461;-72
2023/08/07 12:08:49;;;;;;;1.30;1.20;;;15.50;99.90;;;;;;5072113;28;20485;-72
2023/08/07 12:11:16;;;;;;;2.67;1.30;;;15.50;99.90;;;;;;5071990;28;20479;-72
2023/08/07 12:13:44;;;;;;;1.50;1.40;;;15.50;99.90;;;;;;5072288;28;20462;-72
2023/08/07 12:16:15;;;;;;;2.03;1.33;;;15.40;99.90;;;;;;5071083;28;20493;-72
2023/08/07 12:18:45;;;;;;;1.70;1.60;;;15.30;99.90;;;;;;5069812;28;20491;-72
2023/08/07 12:21:11;;;;;;;1.47;1.37;;;15.30;99.90;;;;;;5070063;28;20931;-72
2023/08/07 12:23:38;;;;;;;3.97;1.67;;;15.30;99.90;;;;;;5071902;28;20552;-72
2023/08/07 12:26:07;;;;;;;2.10;1.60;;;15.20;99.90;;;;;;5072208;28;20453;-72
2023/08/07 12:28:35;;;;;;;1.70;1.40;;;15.20;99.90;;;;;;5072042;28;20489;-72
2023/08/07 12:31:02;;;;;;;1.50;1.27;;;15.20;99.90;;;;;;5072165;28;20461;-72
2023/08/07 12:33:29;;;;;;;1.70;1.50;;;15.10;99.90;;;;;;5071923;28;20548;-72
2023/08/07 12:35:56;;;;;;;2.20;1.57;;;15.10;99.90;;;;;;5071408;28;20484;-72
2023/08/07 12:38:23;;;;;;;2.00;1.67;;;15.20;99.90;;;;;;5071403;28;20546;-72
2023/08/07 12:40:51;;;;;;;2.40;1.83;;;15.30;99.90;;;;;;5071898;28;20466;-72
2023/08/07 12:43:19;;;;;;;1.37;1.27;;;15.50;99.90;;;;;;5071904;28;20464;-72
2023/08/07 12:45:46;;;;;;;1.43;1.20;;;15.70;99.90;;;;;;5071194;28;20456;-72
2023/08/07 12:48:12;;;;;;;1.73;1.30;;;16.00;99.90;;;;;;5070897;28;20567;-72
2023/08/07 12:50:40;;;;;;;3.27;1.50;;;16.20;99.90;;;;;;5071216;28;20460;-72